createdAt,value
2018-08-24T00:01:12.585Z,96926.17
2018-08-24T00:03:40.021Z,96919.77
2018-08-24T00:06:07.514Z,96928.27
2018-08-24T00:08:34.974Z,96925.89
2018-08-24T00:11:02.407Z,96925.50
2018-08-24T00:13:29.872Z,96920.55
2018-08-24T00:15:57.601Z,96917.33
2018-08-24T00:18:25.026Z,96912.95
2018-08-24T00:20:52.484Z,96918.94
2018-08-24T00:23:19.910Z,96916.08
2018-08-24T00:25:47.321Z,96912.29
2018-08-24T00:28:14.927Z,96919.41
2018-08-24T00:30:42.410Z,96922.73
2018-08-24T00:33:09.887Z,96914.63
2018-08-24T00:35:37.439Z,96913.80
2018-08-24T00:38:04.868Z,96916.30
2018-08-24T00:40:32.297Z,96911.86
2018-08-24T00:42:59.760Z,96913.73
2018-08-24T00:45:27.194Z,96913.22
2018-08-24T00:47:54.631Z,96921.19
2018-08-24T00:50:22.093Z,96920.55
2018-08-24T00:52:49.551Z,96921.01
2018-08-24T00:55:17.059Z,96919.15
2018-08-24T00:57:44.512Z,96922.41
2018-08-24T01:00:11.953Z,96919.95
2018-08-24T01:02:39.474Z,96934.17
2018-08-24T01:05:06.889Z,96926.84
2018-08-24T01:07:34.449Z,96926.89
2018-08-24T01:10:01.988Z,96918.08
2018-08-24T01:12:29.426Z,96929.11
2018-08-24T01:14:57.577Z,96920.26
2018-08-24T01:20:20.864Z,96961.67
2018-08-24T01:22:48.369Z,96969.36
2018-08-24T01:25:15.799Z,96968.50
2018-08-24T01:27:43.268Z,96964.27
2018-08-24T01:30:10.803Z,96950.16
2018-08-24T01:32:41.035Z,96959.09
2018-08-24T01:35:08.561Z,96960.20
2018-08-24T01:37:36.043Z,96963.05
2018-08-24T01:40:03.487Z,96973.60
2018-08-24T01:42:30.922Z,96983.83
2018-08-24T01:44:58.520Z,96992.59
2018-08-24T01:47:25.966Z,96997.30
2018-08-24T01:49:53.498Z,96994.22
2018-08-24T01:52:20.929Z,96992.95
2018-08-24T01:54:48.406Z,96992.70
2018-08-24T01:57:15.835Z,96987.45
2018-08-24T01:59:43.320Z,96983.45
2018-08-24T02:02:10.795Z,96971.62
2018-08-24T02:04:38.267Z,96978.59
2018-08-24T02:07:05.727Z,96979.70
2018-08-24T02:09:33.150Z,96976.53
2018-08-24T02:12:01.123Z,96976.27
2018-08-24T02:14:28.677Z,96971.45
2018-08-24T02:16:56.143Z,96971.97
2018-08-24T02:19:23.600Z,96971.73
2018-08-24T02:24:43.219Z,96971.46
2018-08-24T02:27:10.679Z,96964.30
2018-08-24T02:29:38.127Z,96956.72
2018-08-24T02:32:05.847Z,96958.38
2018-08-24T02:34:33.324Z,96958.64
2018-08-24T02:37:00.779Z,96959.55
2018-08-24T02:39:28.268Z,96971.98
2018-08-24T02:41:55.699Z,96971.48
2018-08-24T02:44:23.110Z,96977.13
2018-08-24T02:46:50.552Z,96964.89
2018-08-24T02:49:17.959Z,96957.81
2018-08-24T02:51:45.350Z,96958.73
2018-08-24T02:54:12.765Z,96964.48
2018-08-24T02:56:40.995Z,96970.98
2018-08-24T02:59:08.481Z,96974.30
2018-08-24T03:01:35.930Z,96981.38
2018-08-24T03:04:03.394Z,96973.63
2018-08-24T03:06:30.910Z,96967.19
2018-08-24T03:08:58.313Z,96971.03
2018-08-24T03:11:25.800Z,96975.03
2018-08-24T03:13:53.297Z,96983.22
2018-08-24T03:16:20.820Z,96987.06
2018-08-24T03:18:48.312Z,96990.70
2018-08-24T03:21:15.717Z,96988.30
2018-08-24T03:23:43.233Z,96986.31
2018-08-24T03:26:10.664Z,96980.73
2018-08-24T03:28:38.140Z,96990.87
2018-08-24T03:31:05.560Z,96991.56
2018-08-24T03:33:32.977Z,96996.64
2018-08-24T03:36:00.417Z,97000.23
2018-08-24T03:38:27.904Z,96995.97
2018-08-24T03:43:29.323Z,97009.14
2018-08-24T03:45:56.957Z,97004.78
2018-08-24T03:48:24.397Z,97019.81
2018-08-24T03:50:51.898Z,97024.12
2018-08-24T03:53:19.406Z,97020.37
2018-08-24T03:55:46.929Z,97027.87
2018-08-24T03:58:14.374Z,97035.97
2018-08-24T04:00:41.792Z,97035.30
2018-08-24T04:03:09.340Z,97039.82
2018-08-24T04:05:36.738Z,97038.98
2018-08-24T04:08:04.183Z,97040.89
2018-08-24T04:10:31.651Z,97035.89
2018-08-24T04:12:59.134Z,97043.14
2018-08-24T04:15:26.624Z,97036.40
2018-08-24T04:17:54.067Z,97040.55
2018-08-24T04:20:21.543Z,97038.81
2018-08-24T04:22:49.000Z,97043.56
2018-08-24T04:25:16.426Z,97042.14
2018-08-24T04:27:43.860Z,97047.62
2018-08-24T04:30:11.322Z,97051.31
2018-08-24T04:32:39.704Z,97051.21
2018-08-24T04:35:07.241Z,97055.05
2018-08-24T04:37:34.685Z,97051.38
2018-08-24T04:40:02.156Z,97054.56
2018-08-24T04:42:29.585Z,97057.05
2018-08-24T04:44:57.125Z,97057.48
2018-08-24T04:47:24.527Z,97055.92
2018-08-24T04:49:52.027Z,97058.16
2018-08-24T04:52:19.507Z,97056.98
2018-08-24T04:54:46.914Z,97062.07
2018-08-24T04:57:14.365Z,97062.89
2018-08-24T04:59:41.823Z,97068.14
2018-08-24T05:02:09.271Z,97066.56
2018-08-24T05:04:36.703Z,97071.14
2018-08-24T05:07:04.137Z,97065.30
2018-08-24T05:09:31.674Z,97066.47
2018-08-24T05:11:59.749Z,97071.44
2018-08-24T05:14:27.223Z,97062.42
2018-08-24T05:16:54.676Z,97071.42
2018-08-24T05:19:22.120Z,97068.50
2018-08-24T05:21:49.534Z,97073.39
2018-08-24T05:24:17.094Z,97071.30
2018-08-24T05:26:44.698Z,97078.70
2018-08-24T05:29:12.154Z,97074.51
2018-08-24T05:31:39.683Z,97069.00
2018-08-24T05:34:07.165Z,97065.63
2018-08-24T05:36:34.638Z,97063.27
2018-08-24T05:39:02.211Z,97075.30
2018-08-24T05:41:29.626Z,97065.75
2018-08-24T05:43:57.064Z,97076.79
2018-08-24T05:46:24.500Z,97078.98
2018-08-24T05:48:52.209Z,97072.56
2018-08-24T05:51:20.008Z,97079.53
2018-08-24T05:53:47.417Z,97075.79
2018-08-24T05:56:14.936Z,97082.30
2018-08-24T05:58:42.426Z,97078.31
2018-08-24T06:01:09.981Z,97072.38
2018-08-24T06:03:37.368Z,97067.95
2018-08-24T06:06:04.785Z,97069.20
2018-08-24T06:08:32.289Z,97070.58
2018-08-24T06:10:59.745Z,97065.31
2018-08-24T06:13:27.231Z,97065.78
2018-08-24T06:15:54.804Z,97063.73
2018-08-24T06:18:22.204Z,97071.08
2018-08-24T06:20:49.695Z,97072.80
2018-08-24T06:23:17.226Z,97069.30
2018-08-24T06:25:44.725Z,97072.99
2018-08-24T06:28:12.159Z,97072.71
2018-08-24T06:30:39.662Z,97073.87
2018-08-24T06:33:07.070Z,97074.05
2018-08-24T06:35:34.561Z,97077.73
2018-08-24T06:38:02.112Z,97071.17
2018-08-24T06:40:29.600Z,97066.72
2018-08-24T06:42:57.286Z,97065.58
2018-08-24T06:45:24.753Z,97069.69
2018-08-24T06:47:52.215Z,97071.59
2018-08-24T06:50:19.699Z,97072.59
2018-08-24T06:52:47.161Z,97068.83
2018-08-24T06:55:14.604Z,97077.89
2018-08-24T06:57:42.379Z,97077.86
2018-08-24T07:00:09.934Z,97078.55
2018-08-24T07:02:37.468Z,97078.42
2018-08-24T07:05:04.928Z,97070.86
2018-08-24T07:07:32.433Z,97076.55
2018-08-24T07:09:59.901Z,97074.42
2018-08-24T07:12:27.343Z,97074.58
2018-08-24T07:14:54.801Z,97080.93
2018-08-24T07:17:22.260Z,97075.33
2018-08-24T07:19:50.194Z,97079.88
2018-08-24T07:22:17.703Z,97076.14
2018-08-24T07:24:45.111Z,97081.67
2018-08-24T07:27:12.593Z,97087.09
2018-08-24T07:29:40.086Z,97075.84
2018-08-24T07:32:07.565Z,97075.88
2018-08-24T07:34:35.930Z,97073.98
2018-08-24T07:37:03.375Z,97067.95
2018-08-24T07:39:30.873Z,97067.03
2018-08-24T07:41:58.467Z,97064.63
2018-08-24T07:44:25.908Z,97065.10
2018-08-24T07:46:53.339Z,97067.27
2018-08-24T07:49:20.913Z,97063.42
2018-08-24T07:51:48.351Z,97071.17
2018-08-24T07:54:15.772Z,97075.73
2018-08-24T07:56:43.198Z,97075.98
2018-08-24T07:59:10.889Z,97072.95
2018-08-24T08:01:38.342Z,97073.22
2018-08-24T08:04:06.045Z,97075.55
2018-08-24T08:06:33.525Z,97073.98
2018-08-24T08:09:00.996Z,97083.52
2018-08-24T08:11:28.417Z,97076.02
2018-08-24T08:13:55.827Z,97078.71
2018-08-24T08:16:23.266Z,97074.97
2018-08-24T08:18:50.712Z,97084.42
2018-08-24T08:21:18.105Z,97081.33
2018-08-24T08:23:45.521Z,97081.66
2018-08-24T08:26:12.961Z,97081.55
2018-08-24T08:28:40.360Z,97081.73
2018-08-24T08:31:07.838Z,97079.48
2018-08-24T08:33:35.500Z,97087.30
2018-08-24T08:36:02.934Z,97076.34
2018-08-24T08:38:30.441Z,97082.11
2018-08-24T08:40:57.891Z,97078.86
2018-08-24T08:43:25.347Z,97070.41
2018-08-24T08:45:52.772Z,97066.08
2018-08-24T08:48:20.206Z,97063.78
2018-08-24T08:50:47.613Z,97070.47
2018-08-24T08:53:15.083Z,97065.53
2018-08-24T08:55:42.489Z,97075.37
2018-08-24T08:58:10.033Z,97075.38
2018-08-24T09:00:37.455Z,97066.30
2018-08-24T09:03:04.895Z,97073.37
2018-08-24T09:05:32.310Z,97076.36
2018-08-24T09:07:59.935Z,97070.97
2018-08-24T09:10:27.404Z,97072.23
2018-08-24T09:12:54.903Z,97074.50
2018-08-24T09:15:22.277Z,97070.58
2018-08-24T09:17:49.766Z,97078.60
2018-08-24T09:23:18.851Z,97074.36
2018-08-24T09:28:42.424Z,97066.16
2018-08-24T09:31:09.885Z,97069.71
2018-08-24T09:33:37.281Z,97058.25
2018-08-24T09:36:04.748Z,97062.93
2018-08-24T09:38:32.216Z,97062.19
2018-08-24T09:40:59.695Z,97056.22
2018-08-24T09:43:27.232Z,97053.50
2018-08-24T09:45:54.676Z,97052.52
2018-08-24T09:48:26.541Z,97054.27
2018-08-24T09:50:54.005Z,97055.59
2018-08-24T09:53:21.865Z,97055.12
2018-08-24T09:55:49.293Z,97053.72
2018-08-24T09:58:16.770Z,97062.96
2018-08-24T10:00:44.258Z,97047.78
2018-08-24T10:03:11.641Z,97053.34
2018-08-24T10:08:32.306Z,97047.98
2018-08-24T10:10:59.756Z,97037.75
2018-08-24T10:13:27.221Z,97034.64
2018-08-24T10:15:54.650Z,97041.38
2018-08-24T10:18:22.158Z,97030.07
2018-08-24T10:20:49.556Z,97039.31
2018-08-24T10:23:17.046Z,97023.34
2018-08-24T10:25:44.487Z,97024.70
2018-08-24T10:28:11.892Z,97024.77
2018-08-24T10:30:39.309Z,97013.35
2018-08-24T10:33:06.751Z,97015.15
2018-08-24T10:35:34.328Z,97013.92
2018-08-24T10:38:01.794Z,97017.45
2018-08-24T10:40:29.181Z,97008.85
2018-08-24T10:42:56.652Z,97020.27
2018-08-24T10:45:24.140Z,97019.19
2018-08-24T10:47:51.648Z,97019.71
2018-08-24T10:50:19.067Z,97021.42
2018-08-24T10:52:46.459Z,97013.92
2018-08-24T10:55:13.918Z,97028.63
2018-08-24T10:57:41.348Z,97025.84
2018-08-24T11:00:08.832Z,97017.56
2018-08-24T11:02:36.258Z,97015.52
2018-08-24T11:05:03.771Z,97015.20
2018-08-24T11:07:31.228Z,97013.77
2018-08-24T11:09:58.711Z,97014.20
2018-08-24T11:12:26.237Z,97018.42
2018-08-24T11:14:53.692Z,97014.87
2018-08-24T11:17:21.132Z,97012.97
2018-08-24T11:19:48.549Z,97012.74
2018-08-24T11:22:15.986Z,97009.95
2018-08-24T11:24:43.381Z,97016.02
2018-08-24T11:27:10.801Z,97012.83
2018-08-24T11:29:38.288Z,97001.36
2018-08-24T11:32:05.770Z,97004.14
2018-08-24T11:34:33.281Z,97009.41
2018-08-24T11:37:00.850Z,96997.13
2018-08-24T11:39:28.338Z,97004.72
2018-08-24T11:41:55.908Z,96998.68
2018-08-24T11:44:23.228Z,96991.16
2018-08-24T11:46:50.710Z,96996.13
2018-08-24T11:49:18.232Z,96992.11
2018-08-24T11:51:45.673Z,96989.21
2018-08-24T11:54:13.214Z,96988.31
2018-08-24T11:56:40.573Z,96989.84
2018-08-24T11:59:08.149Z,96986.77
2018-08-24T12:01:35.616Z,96980.78
2018-08-24T12:04:03.165Z,96975.17
2018-08-24T12:06:30.597Z,96975.84
2018-08-24T12:08:58.146Z,96981.48
2018-08-24T12:11:25.759Z,96978.44
2018-08-24T12:13:53.260Z,96973.35
2018-08-24T12:16:20.199Z,96972.73
2018-08-24T12:18:47.219Z,96973.36
2018-08-24T12:21:14.192Z,96965.67
2018-08-24T12:23:41.159Z,96960.78
2018-08-24T12:26:08.143Z,96965.67
2018-08-24T12:28:35.914Z,96961.19
2018-08-24T12:31:02.981Z,96959.71
2018-08-24T12:33:30.010Z,96965.45
2018-08-24T12:35:56.961Z,96961.13
2018-08-24T12:38:23.943Z,96961.81
2018-08-24T12:40:50.929Z,96963.32
2018-08-24T12:43:17.969Z,96950.33
2018-08-24T12:45:45.009Z,96948.88
2018-08-24T12:48:11.988Z,96945.31
2018-08-24T12:50:39.075Z,96945.13
2018-08-24T12:53:06.053Z,96946.05
2018-08-24T12:55:33.135Z,96945.43
2018-08-24T12:58:00.161Z,96942.30
2018-08-24T13:00:27.208Z,96945.30
2018-08-24T13:02:54.175Z,96943.88
2018-08-24T13:05:21.125Z,96941.67
2018-08-24T13:07:48.274Z,96936.20
2018-08-24T13:10:15.284Z,96939.09
2018-08-24T13:12:42.310Z,96930.11
2018-08-24T13:15:09.366Z,96936.43
2018-08-24T13:17:36.304Z,96923.77
2018-08-24T13:20:03.298Z,96935.78
2018-08-24T13:22:30.304Z,96925.79
2018-08-24T13:24:57.344Z,96921.64
2018-08-24T13:27:24.376Z,96921.90
2018-08-24T13:29:51.278Z,96926.99
2018-08-24T13:32:18.982Z,96913.70
2018-08-24T13:34:45.981Z,96920.52
2018-08-24T13:37:12.985Z,96928.60
2018-08-24T13:39:40.390Z,96927.97
2018-08-24T13:42:07.594Z,96922.26
2018-08-24T13:44:35.020Z,96924.91
2018-08-24T13:47:02.089Z,96925.95
2018-08-24T13:49:29.054Z,96939.52
2018-08-24T13:51:56.664Z,96923.52
2018-08-24T13:54:23.599Z,96925.61
2018-08-24T13:56:51.080Z,96923.73
2018-08-24T13:59:18.071Z,96919.52
2018-08-24T14:01:45.035Z,96924.99
2018-08-24T14:04:11.976Z,96918.80
2018-08-24T14:06:38.926Z,96916.25
2018-08-24T14:09:05.927Z,96923.14
2018-08-24T14:11:32.976Z,96918.86
2018-08-24T14:14:00.123Z,96930.08
2018-08-24T14:16:27.116Z,96923.75
2018-08-24T14:18:54.168Z,96923.73
2018-08-24T14:21:21.191Z,96913.41
2018-08-24T14:23:48.172Z,96906.58
2018-08-24T14:26:15.192Z,96908.48
2018-08-24T14:28:42.167Z,96912.95
2018-08-24T14:31:09.130Z,96908.72
2018-08-24T14:33:36.613Z,96914.70
2018-08-24T14:36:04.013Z,96913.35
2018-08-24T14:38:30.958Z,96916.63
2018-08-24T14:40:57.973Z,96919.65
2018-08-24T14:43:25.482Z,96914.67
2018-08-24T14:45:52.450Z,96921.32
2018-08-24T14:48:19.450Z,96922.54
2018-08-24T14:50:46.867Z,96912.16
2018-08-24T14:53:14.446Z,96916.94
2018-08-24T14:55:42.252Z,96920.45
2018-08-24T14:58:10.131Z,96915.16
2018-08-24T15:00:37.196Z,96910.09
2018-08-24T15:03:04.731Z,96906.36
2018-08-24T15:05:31.674Z,96895.52
2018-08-24T15:07:58.773Z,96902.38
2018-08-24T15:10:26.355Z,96903.23
2018-08-24T15:12:53.345Z,96910.38
2018-08-24T15:15:20.350Z,96909.36
2018-08-24T15:17:47.388Z,96908.17
2018-08-24T15:20:14.398Z,96912.13
2018-08-24T15:22:41.417Z,96910.22
2018-08-24T15:25:08.723Z,96902.20
2018-08-24T15:27:35.745Z,96895.98
2018-08-24T15:30:02.817Z,96897.92
2018-08-24T15:32:29.817Z,96892.03
2018-08-24T15:34:56.814Z,96900.77
2018-08-24T15:37:23.822Z,96898.86
2018-08-24T15:39:50.784Z,96896.66
2018-08-24T15:42:17.827Z,96906.69
2018-08-24T15:44:44.975Z,96905.96
2018-08-24T15:47:11.944Z,96904.85
2018-08-24T15:49:40.305Z,96906.69
2018-08-24T15:52:07.272Z,96897.24
2018-08-24T15:54:34.363Z,96898.32
2018-08-24T15:57:01.335Z,96884.64
2018-08-24T15:59:28.446Z,96884.19
2018-08-24T16:01:55.438Z,96885.00
2018-08-24T16:04:22.493Z,96885.12
2018-08-24T16:06:49.535Z,96887.45
2018-08-24T16:09:16.568Z,96885.48
2018-08-24T16:11:43.987Z,96880.20
2018-08-24T16:14:11.139Z,96880.09
2018-08-24T16:16:39.674Z,96886.67
2018-08-24T16:19:07.043Z,96893.00
2018-08-24T16:21:34.271Z,96889.72
2018-08-24T16:24:01.971Z,96888.33
2018-08-24T16:26:29.081Z,96894.39
2018-08-24T16:28:56.563Z,96892.27
2018-08-24T16:31:23.616Z,96881.95
2018-08-24T16:33:50.662Z,96872.52
2018-08-24T16:36:17.657Z,96874.32
2018-08-24T16:38:44.695Z,96870.77
2018-08-24T16:41:11.746Z,96874.73
2018-08-24T16:44:13.005Z,96870.42
2018-08-24T16:46:40.127Z,96875.34
2018-08-24T16:49:07.097Z,96874.34
2018-08-24T16:51:34.188Z,96875.41
2018-08-24T16:54:01.183Z,96875.01
2018-08-24T16:56:28.184Z,96873.78
2018-08-24T16:58:55.273Z,96878.58
2018-08-24T17:01:22.295Z,96879.33
2018-08-24T17:03:49.382Z,96878.25
2018-08-24T17:06:16.764Z,96885.26
2018-08-24T17:08:43.888Z,96886.80
2018-08-24T17:11:10.871Z,96888.81
2018-08-24T17:13:38.179Z,96882.84
2018-08-24T17:16:22.719Z,96888.09
2018-08-24T17:18:49.765Z,96880.78
2018-08-24T17:21:16.826Z,96879.64
2018-08-24T17:23:43.838Z,96876.33
2018-08-24T17:26:10.844Z,96894.92
2018-08-24T17:28:37.962Z,96902.88
2018-08-24T17:31:05.530Z,96907.48
2018-08-24T17:33:32.979Z,96908.22
2018-08-24T17:36:00.464Z,96907.90
2018-08-24T17:38:28.001Z,96911.98
2018-08-24T17:40:55.453Z,96919.13
2018-08-24T17:43:23.115Z,96918.67
2018-08-24T17:45:50.605Z,96915.86
2018-08-24T17:48:17.565Z,96926.27
2018-08-24T17:50:44.611Z,96924.16
2018-08-24T17:53:11.900Z,96937.72
2018-08-24T17:55:38.983Z,96939.69
2018-08-24T17:58:06.384Z,96942.78
2018-08-24T18:00:33.834Z,96943.23
2018-08-24T18:03:01.303Z,96941.91
2018-08-24T18:05:28.764Z,96944.84
2018-08-24T18:07:56.219Z,96947.72
2018-08-24T18:10:23.799Z,96956.75
2018-08-24T18:12:51.262Z,96960.01
2018-08-24T18:15:18.684Z,96957.60
2018-08-24T18:17:46.139Z,96954.41
2018-08-24T18:20:13.619Z,96962.45
2018-08-24T18:22:41.181Z,96957.66
2018-08-24T18:25:08.627Z,96955.20
2018-08-24T18:27:36.124Z,96949.98
2018-08-24T18:30:03.569Z,96952.88
2018-08-24T18:32:31.039Z,96965.61
2018-08-24T18:34:58.557Z,96963.31
2018-08-24T18:37:26.021Z,96957.83
2018-08-24T18:39:53.495Z,96969.32
2018-08-24T18:42:20.946Z,96969.66
2018-08-24T18:44:48.441Z,96969.34
2018-08-24T18:47:15.977Z,96970.38
2018-08-24T18:49:43.944Z,96970.83
2018-08-24T18:52:11.380Z,96979.22
2018-08-24T18:54:38.833Z,96983.78
2018-08-24T18:57:06.255Z,96992.29
2018-08-24T18:59:33.884Z,96993.62
2018-08-24T19:02:01.372Z,96998.98
2018-08-24T19:04:28.767Z,97006.63
2018-08-24T19:06:57.082Z,97010.71
2018-08-24T19:09:24.538Z,97013.61
2018-08-24T19:14:47.316Z,97027.95
2018-08-24T19:17:14.802Z,97025.73
2018-08-24T19:22:36.508Z,97039.59
2018-08-24T19:25:04.020Z,97045.08
2018-08-24T19:27:31.580Z,97043.03
2018-08-24T19:32:53.257Z,97045.34
2018-08-24T19:35:20.748Z,97046.53
2018-08-24T19:37:48.397Z,97047.70
2018-08-24T19:40:15.864Z,97044.61
2018-08-24T19:42:43.341Z,97049.86
2018-08-24T19:45:10.903Z,97053.17
2018-08-24T19:47:38.401Z,97051.59
2018-08-24T19:50:05.867Z,97059.25
2018-08-24T19:52:33.334Z,97057.94
2018-08-24T19:55:00.878Z,97063.39
2018-08-24T19:57:28.300Z,97067.12
2018-08-24T19:59:55.800Z,97075.64
2018-08-24T20:02:23.230Z,97069.62
2018-08-24T20:04:50.623Z,97070.70
2018-08-24T20:10:14.935Z,97086.52
2018-08-24T20:12:42.523Z,97086.84
2018-08-24T20:15:10.058Z,97084.94
2018-08-24T20:17:37.542Z,97092.78
2018-08-24T20:20:04.975Z,97088.20
2018-08-24T20:22:32.554Z,97096.89
2018-08-24T20:25:00.029Z,97089.55
2018-08-24T20:27:27.492Z,97090.78
2018-08-24T20:29:55.000Z,97097.58
2018-08-24T20:32:22.439Z,97101.47
2018-08-24T20:34:49.921Z,97098.48
2018-08-24T20:37:17.329Z,97095.08
2018-08-24T20:39:44.791Z,97091.67
2018-08-24T20:42:12.204Z,97102.42
2018-08-24T20:44:39.663Z,97102.02
2018-08-24T20:47:07.246Z,97104.92
2018-08-24T20:49:34.698Z,97105.07
2018-08-24T20:52:02.142Z,97104.48
2018-08-24T20:54:29.694Z,97104.65
2018-08-24T20:56:57.137Z,97107.80
2018-08-24T20:59:24.597Z,97114.54
2018-08-24T21:01:52.031Z,97111.37
2018-08-24T21:04:19.627Z,97108.72
2018-08-24T21:06:47.011Z,97114.48
2018-08-24T21:09:14.497Z,97118.55
2018-08-24T21:11:41.984Z,97106.39
2018-08-24T21:14:09.518Z,97107.97
2018-08-24T21:16:36.935Z,97103.22
2018-08-24T21:19:04.391Z,97105.56
2018-08-24T21:21:31.899Z,97111.41
2018-08-24T21:23:59.407Z,97115.40
2018-08-24T21:26:26.968Z,97122.40
2018-08-24T21:28:54.470Z,97116.30
2018-08-24T21:31:21.923Z,97123.23
2018-08-24T21:33:49.522Z,97126.13
2018-08-24T21:36:16.955Z,97124.73
2018-08-24T21:38:44.423Z,97126.13
2018-08-24T21:41:11.824Z,97131.45
2018-08-24T21:43:39.258Z,97120.98
2018-08-24T21:46:06.754Z,97119.58
2018-08-24T21:48:34.272Z,97130.72
2018-08-24T21:51:01.737Z,97124.99
2018-08-24T21:53:29.191Z,97124.22
2018-08-24T21:55:56.690Z,97124.21
2018-08-24T21:58:24.166Z,97121.95
2018-08-24T22:00:51.656Z,97130.95
2018-08-24T22:03:19.106Z,97130.09
2018-08-24T22:05:46.591Z,97130.69
2018-08-24T22:08:14.070Z,97132.04
2018-08-24T22:10:41.502Z,97141.03
2018-08-24T22:13:09.048Z,97139.08
2018-08-24T22:15:36.495Z,97142.77
2018-08-24T22:18:03.911Z,97133.78
2018-08-24T22:20:31.317Z,97138.05
2018-08-24T22:22:58.811Z,97135.52
2018-08-24T22:25:26.297Z,97140.73
2018-08-24T22:27:53.769Z,97138.22
2018-08-24T22:30:21.220Z,97124.32
2018-08-24T22:32:48.655Z,97120.52
2018-08-24T22:35:16.116Z,97121.53
2018-08-24T22:37:43.590Z,97121.59
2018-08-24T22:40:11.087Z,97119.48
2018-08-24T22:42:38.544Z,97121.86
2018-08-24T22:45:06.016Z,97118.19
2018-08-24T22:47:33.489Z,97119.11
2018-08-24T22:50:00.916Z,97113.69
2018-08-24T22:52:28.357Z,97114.94
2018-08-24T22:54:55.882Z,97119.76
2018-08-24T22:57:23.355Z,97117.24
2018-08-24T22:59:50.844Z,97116.64
2018-08-24T23:02:18.357Z,97120.16
2018-08-24T23:04:45.743Z,97123.23
2018-08-24T23:07:13.183Z,97117.38
2018-08-24T23:09:40.648Z,97116.26
2018-08-24T23:12:08.856Z,97106.38
2018-08-24T23:14:36.380Z,97108.98
2018-08-24T23:17:03.876Z,97110.77
2018-08-24T23:19:31.409Z,97112.73
2018-08-24T23:21:58.924Z,97109.48
2018-08-24T23:24:26.526Z,97107.73
2018-08-24T23:26:53.962Z,97101.93
2018-08-24T23:29:21.461Z,97103.10
2018-08-24T23:31:48.884Z,97104.58
2018-08-24T23:34:16.407Z,97104.81
2018-08-24T23:36:43.853Z,97104.13
2018-08-24T23:39:11.292Z,97098.03
2018-08-24T23:41:38.742Z,97093.86
2018-08-24T23:44:06.288Z,97093.04
2018-08-24T23:46:33.803Z,97100.23
2018-08-24T23:49:01.245Z,97095.66
2018-08-24T23:51:28.813Z,97091.95
2018-08-24T23:53:56.382Z,97097.67
2018-08-24T23:56:23.792Z,97098.59
2018-08-24T23:58:51.591Z,97099.93
